sensor_id;sensor_type;location;lat;lon;timestamp;pressure;altitude;pressure_sealevel;temperature;humidity
52745;BME280;38637;49.984;20.426;2023-05-19T00:01:25;100268.22;;;9.42;100.00
52745;BME280;38637;49.984;20.426;2023-05-19T00:03:55;100259.44;;;9.40;100.00
52745;BME280;38637;49.984;20.426;2023-05-19T00:06:25;100267.63;;;9.40;100.00
52745;BME280;38637;49.984;20.426;2023-05-19T00:08:58;100258.22;;;9.36;100.00
52745;BME280;38637;49.984;20.426;2023-05-19T00:11:24;100253.25;;;9.33;100.00
52745;BME280;38637;49.984;20.426;2023-05-19T00:13:51;100259.78;;;9.32;100.00
52745;BME280;38637;49.984;20.426;2023-05-19T00:16:16;100254.78;;;9.29;100.00
52745;BME280;38637;49.984;20.426;2023-05-19T00:18:42;100260.47;;;9.28;100.00
52745;BME280;38637;49.984;20.426;2023-05-19T00:21:07;100255.50;;;9.25;100.00
52745;BME280;38637;49.984;20.426;2023-05-19T00:23:33;100253.81;;;9.24;100.00
52745;BME280;38637;49.984;20.426;2023-05-19T00:25:58;100254.63;;;9.24;100.00
52745;BME280;38637;49.984;20.426;2023-05-19T00:28:23;100255.03;;;9.28;100.00
52745;BME280;38637;49.984;20.426;2023-05-19T00:30:49;100249.56;;;9.28;100.00
52745;BME280;38637;49.984;20.426;2023-05-19T00:33:14;100246.84;;;9.28;100.00
52745;BME280;38637;49.984;20.426;2023-05-19T00:35:39;100251.69;;;9.26;100.00
52745;BME280;38637;49.984;20.426;2023-05-19T00:38:05;100242.69;;;9.25;100.00
52745;BME280;38637;49.984;20.426;2023-05-19T00:40:30;100245.16;;;9.27;100.00
52745;BME280;38637;49.984;20.426;2023-05-19T00:42:57;100241.00;;;9.24;100.00
52745;BME280;38637;49.984;20.426;2023-05-19T00:45:23;100250.50;;;9.22;100.00
52745;BME280;38637;49.984;20.426;2023-05-19T00:47:48;100244.66;;;9.18;100.00
52745;BME280;38637;49.984;20.426;2023-05-19T00:50:13;100250.25;;;9.23;100.00
52745;BME280;38637;49.984;20.426;2023-05-19T00:52:38;100250.88;;;9.25;100.00
52745;BME280;38637;49.984;20.426;2023-05-19T00:55:04;100248.97;;;9.26;100.00
52745;BME280;38637;49.984;20.426;2023-05-19T00:57:29;100241.88;;;9.25;100.00
52745;BME280;38637;49.984;20.426;2023-05-19T00:59:55;100241.88;;;9.25;100.00
52745;BME280;38637;49.984;20.426;2023-05-19T01:02:20;100245.41;;;9.25;100.00
52745;BME280;38637;49.984;20.426;2023-05-19T01:04:45;100241.41;;;9.28;100.00
52745;BME280;38637;49.984;20.426;2023-05-19T01:07:11;100238.69;;;9.28;100.00
52745;BME280;38637;49.984;20.426;2023-05-19T01:09:36;100240.19;;;9.24;100.00
52745;BME280;38637;49.984;20.426;2023-05-19T01:12:02;100235.81;;;9.23;100.00
52745;BME280;38637;49.984;20.426;2023-05-19T01:14:27;100229.75;;;9.20;100.00
52745;BME280;38637;49.984;20.426;2023-05-19T01:16:57;100235.19;;;9.20;100.00
52745;BME280;38637;49.984;20.426;2023-05-19T01:19:40;100230.00;;;9.19;100.00
52745;BME280;38637;49.984;20.426;2023-05-19T01:25:00;100229.63;;;9.15;100.00
52745;BME280;38637;49.984;20.426;2023-05-19T01:32:40;100245.69;;;9.05;100.00
52745;BME280;38637;49.984;20.426;2023-05-19T01:35:05;100239.31;;;9.11;100.00
52745;BME280;38637;49.984;20.426;2023-05-19T01:37:32;100246.44;;;9.12;100.00
52745;BME280;38637;49.984;20.426;2023-05-19T01:39:58;100245.00;;;9.10;100.00
52745;BME280;38637;49.984;20.426;2023-05-19T01:42:24;100242.84;;;9.12;100.00
52745;BME280;38637;49.984;20.426;2023-05-19T01:44:50;100241.47;;;9.21;100.00
52745;BME280;38637;49.984;20.426;2023-05-19T01:47:16;100242.06;;;9.23;100.00
52745;BME280;38637;49.984;20.426;2023-05-19T01:49:41;100245.41;;;9.25;100.00
52745;BME280;38637;49.984;20.426;2023-05-19T01:52:06;100241.00;;;9.24;100.00
52745;BME280;38637;49.984;20.426;2023-05-19T01:54:32;100243.50;;;9.26;100.00
52745;BME280;38637;49.984;20.426;2023-05-19T01:57:14;100247.44;;;9.30;100.00
52745;BME280;38637;49.984;20.426;2023-05-19T01:59:58;100241.75;;;9.31;100.00
52745;BME280;38637;49.984;20.426;2023-05-19T02:05:15;100235.47;;;9.31;100.00
52745;BME280;38637;49.984;20.426;2023-05-19T02:07:43;100236.53;;;9.30;100.00
52745;BME280;38637;49.984;20.426;2023-05-19T02:10:18;100226.56;;;9.24;100.00
52745;BME280;38637;49.984;20.426;2023-05-19T02:12:46;100234.00;;;9.16;100.00
52745;BME280;38637;49.984;20.426;2023-05-19T02:15:16;100227.56;;;9.11;100.00
52745;BME280;38637;49.984;20.426;2023-05-19T02:17:45;100226.97;;;9.09;100.00
52745;BME280;38637;49.984;20.426;2023-05-19T02:20:14;100226.50;;;9.12;100.00
52745;BME280;38637;49.984;20.426;2023-05-19T02:22:40;100231.38;;;9.10;100.00
52745;BME280;38637;49.984;20.426;2023-05-19T02:25:05;100223.19;;;9.10;100.00
52745;BME280;38637;49.984;20.426;2023-05-19T02:27:30;100216.06;;;9.09;100.00
52745;BME280;38637;49.984;20.426;2023-05-19T02:29:56;100225.31;;;9.08;100.00
52745;BME280;38637;49.984;20.426;2023-05-19T02:32:21;100224.03;;;9.10;100.00
52745;BME280;38637;49.984;20.426;2023-05-19T02:34:46;100218.34;;;9.12;100.00
52745;BME280;38637;49.984;20.426;2023-05-19T02:37:12;100212.88;;;9.12;100.00
52745;BME280;38637;49.984;20.426;2023-05-19T02:39:38;100211.53;;;9.03;100.00
52745;BME280;38637;49.984;20.426;2023-05-19T02:42:04;100218.88;;;9.02;100.00
52745;BME280;38637;49.984;20.426;2023-05-19T02:44:29;100221.03;;;9.00;100.00
52745;BME280;38637;49.984;20.426;2023-05-19T02:46:54;100219.13;;;9.01;100.00
52745;BME280;38637;49.984;20.426;2023-05-19T02:49:19;100224.72;;;9.06;100.00
52745;BME280;38637;49.984;20.426;2023-05-19T02:51:45;100220.31;;;9.05;100.00
52745;BME280;38637;49.984;20.426;2023-05-19T02:54:10;100220.94;;;9.07;100.00
52745;BME280;38637;49.984;20.426;2023-05-19T02:56:35;100221.03;;;9.00;100.00
52745;BME280;38637;49.984;20.426;2023-05-19T02:59:00;100222.22;;;9.04;100.00
52745;BME280;38637;49.984;20.426;2023-05-19T03:01:25;100222.44;;;9.03;100.00
52745;BME280;38637;49.984;20.426;2023-05-19T03:03:51;100221.97;;;9.06;100.00
52745;BME280;38637;49.984;20.426;2023-05-19T03:06:16;100224.78;;;8.99;100.00
52745;BME280;38637;49.984;20.426;2023-05-19T03:08:42;100224.22;;;8.97;100.00
52745;BME280;38637;49.984;20.426;2023-05-19T03:11:07;100219.81;;;8.96;100.00
52745;BME280;38637;49.984;20.426;2023-05-19T03:13:32;100218.53;;;8.98;100.00
52745;BME280;38637;49.984;20.426;2023-05-19T03:15:58;100218.06;;;9.02;100.00
52745;BME280;38637;49.984;20.426;2023-05-19T03:18:24;100223.50;;;9.02;100.00
52745;BME280;38637;49.984;20.426;2023-05-19T03:20:50;100221.03;;;9.00;100.00
52745;BME280;38637;49.984;20.426;2023-05-19T03:23:15;100220.13;;;9.06;100.00
52745;BME280;38637;49.984;20.426;2023-05-19T03:25:40;100222.97;;;9.11;100.00
52745;BME280;38637;49.984;20.426;2023-05-19T03:28:05;100223.19;;;9.10;100.00
52745;BME280;38637;49.984;20.426;2023-05-19T03:30:30;100224.84;;;9.11;100.00
52745;BME280;38637;49.984;20.426;2023-05-19T03:32:56;100216.59;;;9.17;100.00
52745;BME280;38637;49.984;20.426;2023-05-19T03:35:21;100212.09;;;9.23;100.00
52745;BME280;38637;49.984;20.426;2023-05-19T03:37:46;100225.72;;;9.23;100.00
52745;BME280;38637;49.984;20.426;2023-05-19T03:40:11;100227.63;;;9.23;100.00
52745;BME280;38637;49.984;20.426;2023-05-19T03:42:37;100226.09;;;9.27;100.00
52745;BME280;38637;49.984;20.426;2023-05-19T03:45:02;100216.88;;;9.28;100.00
52745;BME280;38637;49.984;20.426;2023-05-19T03:47:27;100223.97;;;9.29;100.00
52745;BME280;38637;49.984;20.426;2023-05-19T03:49:52;100220.28;;;9.23;100.00
52745;BME280;38637;49.984;20.426;2023-05-19T03:52:18;100218.06;;;9.32;100.00
52745;BME280;38637;49.984;20.426;2023-05-19T03:54:43;100220.31;;;9.35;100.00
52745;BME280;38637;49.984;20.426;2023-05-19T03:57:08;100217.22;;;9.31;100.00
52745;BME280;38637;49.984;20.426;2023-05-19T03:59:35;100221.25;;;9.29;100.00
52745;BME280;38637;49.984;20.426;2023-05-19T04:02:01;100217.22;;;9.31;100.00
52745;BME280;38637;49.984;20.426;2023-05-19T04:04:26;100219.34;;;9.29;100.00
52745;BME280;38637;49.984;20.426;2023-05-19T04:06:52;100225.78;;;9.35;100.00
52745;BME280;38637;49.984;20.426;2023-05-19T04:09:17;100222.59;;;9.38;100.00
52745;BME280;38637;49.984;20.426;2023-05-19T04:11:43;100219.38;;;9.41;100.00
52745;BME280;38637;49.984;20.426;2023-05-19T04:14:08;100230.78;;;9.50;100.00
52745;BME280;38637;49.984;20.426;2023-05-19T04:16:33;100227.25;;;9.49;100.00
52745;BME280;38637;49.984;20.426;2023-05-19T04:18:59;100225.22;;;9.56;100.00
52745;BME280;38637;49.984;20.426;2023-05-19T04:21:24;100234.84;;;9.59;100.00
52745;BME280;38637;49.984;20.426;2023-05-19T04:23:50;100234.75;;;9.65;100.00
52745;BME280;38637;49.984;20.426;2023-05-19T04:26:15;100233.66;;;9.66;100.00
52745;BME280;38637;49.984;20.426;2023-05-19T04:28:41;100238.06;;;9.68;100.00
52745;BME280;38637;49.984;20.426;2023-05-19T04:31:08;100239.50;;;9.82;100.00
52745;BME280;38637;49.984;20.426;2023-05-19T04:33:35;100238.66;;;9.81;100.00
52745;BME280;38637;49.984;20.426;2023-05-19T04:36:00;100227.88;;;9.75;100.00
52745;BME280;38637;49.984;20.426;2023-05-19T04:38:29;100231.69;;;9.74;100.00
52745;BME280;38637;49.984;20.426;2023-05-19T04:40:54;100230.25;;;9.83;100.00
52745;BME280;38637;49.984;20.426;2023-05-19T04:43:20;100227.88;;;9.86;100.00
52745;BME280;38637;49.984;20.426;2023-05-19T04:45:46;100225.84;;;9.82;100.00
52745;BME280;38637;49.984;20.426;2023-05-19T04:48:14;100221.13;;;9.77;100.00
52745;BME280;38637;49.984;20.426;2023-05-19T04:50:39;100226.00;;;9.87;100.00
52745;BME280;38637;49.984;20.426;2023-05-19T04:53:06;100226.59;;;9.89;100.00
52745;BME280;38637;49.984;20.426;2023-05-19T04:55:31;100226.94;;;9.93;100.00
52745;BME280;38637;49.984;20.426;2023-05-19T04:57:56;100225.88;;;9.94;100.00
52745;BME280;38637;49.984;20.426;2023-05-19T05:00:22;100227.78;;;9.93;100.00
52745;BME280;38637;49.984;20.426;2023-05-19T05:02:47;100226.00;;;9.99;100.00
52745;BME280;38637;49.984;20.426;2023-05-19T05:05:13;100227.66;;;10.11;100.00
52745;BME280;38637;49.984;20.426;2023-05-19T05:07:38;100229.56;;;10.11;100.00
52745;BME280;38637;49.984;20.426;2023-05-19T05:10:03;100228.13;;;10.08;100.00
52745;BME280;38637;49.984;20.426;2023-05-19T05:12:28;100239.19;;;10.13;100.00
52745;BME280;38637;49.984;20.426;2023-05-19T05:14:54;100227.53;;;10.18;100.00
52745;BME280;38637;49.984;20.426;2023-05-19T05:17:19;100223.63;;;10.14;100.00
52745;BME280;38637;49.984;20.426;2023-05-19T05:19:45;100221.75;;;10.26;100.00
52745;BME280;38637;49.984;20.426;2023-05-19T05:22:11;100221.16;;;10.36;100.00
52745;BME280;38637;49.984;20.426;2023-05-19T05:24:36;100222.09;;;10.30;100.00
52745;BME280;38637;49.984;20.426;2023-05-19T05:27:01;100224.69;;;10.25;100.00
52745;BME280;38637;49.984;20.426;2023-05-19T05:29:27;100224.69;;;10.25;100.00
52745;BME280;38637;49.984;20.426;2023-05-19T05:31:53;100228.22;;;10.25;100.00
52745;BME280;38637;49.984;20.426;2023-05-19T05:34:18;100226.00;;;10.34;100.00
52745;BME280;38637;49.984;20.426;2023-05-19T05:36:43;100227.69;;;10.35;100.00
52745;BME280;38637;49.984;20.426;2023-05-19T05:39:08;100228.59;;;10.41;100.00
52745;BME280;38637;49.984;20.426;2023-05-19T05:41:33;100227.41;;;10.48;100.00
52745;BME280;38637;49.984;20.426;2023-05-19T05:44:02;100229.44;;;10.53;100.00
52745;BME280;38637;49.984;20.426;2023-05-19T05:46:28;100235.28;;;10.45;100.00
52745;BME280;38637;49.984;20.426;2023-05-19T05:48:53;100228.84;;;10.63;100.00
52745;BME280;38637;49.984;20.426;2023-05-19T05:51:22;100235.09;;;10.75;100.00
52745;BME280;38637;49.984;20.426;2023-05-19T05:53:51;100231.53;;;10.74;100.00
52745;BME280;38637;49.984;20.426;2023-05-19T05:56:16;100230.09;;;10.84;100.00
52745;BME280;38637;49.984;20.426;2023-05-19T05:58:41;100239.78;;;10.91;100.00
52745;BME280;38637;49.984;20.426;2023-05-19T06:01:07;100244.53;;;10.96;100.00
52745;BME280;38637;49.984;20.426;2023-05-19T06:03:38;100238.22;;;10.95;100.00
52745;BME280;38637;49.984;20.426;2023-05-19T06:06:04;100237.41;;;10.95;100.00
52745;BME280;38637;49.984;20.426;2023-05-19T06:08:30;100238.81;;;10.97;100.00
52745;BME280;38637;49.984;20.426;2023-05-19T06:10:55;100245.56;;;11.07;100.00
52745;BME280;38637;49.984;20.426;2023-05-19T06:13:22;100237.66;;;10.93;100.00
52745;BME280;38637;49.984;20.426;2023-05-19T06:15:48;100255.25;;;10.86;100.00
52745;BME280;38637;49.984;20.426;2023-05-19T06:18:13;100249.22;;;10.84;100.00
52745;BME280;38637;49.984;20.426;2023-05-19T06:20:38;100250.59;;;10.86;100.00
52745;BME280;38637;49.984;20.426;2023-05-19T06:23:03;100249.53;;;10.99;100.00
52745;BME280;38637;49.984;20.426;2023-05-19T06:25:29;100251.69;;;11.14;100.00
52745;BME280;38637;49.984;20.426;2023-05-19T06:27:54;100250.25;;;11.23;100.00
52745;BME280;38637;49.984;20.426;2023-05-19T06:30:19;100252.00;;;11.29;100.00
52745;BME280;38637;49.984;20.426;2023-05-19T06:32:44;100253.19;;;11.33;100.00
52745;BME280;38637;49.984;20.426;2023-05-19T06:35:10;100261.13;;;11.35;100.00
52745;BME280;38637;49.984;20.426;2023-05-19T06:37:35;100256.00;;;11.38;100.00
52745;BME280;38637;49.984;20.426;2023-05-19T06:40:00;100266.06;;;11.49;100.00
52745;BME280;38637;49.984;20.426;2023-05-19T06:42:25;100269.56;;;11.62;100.00
52745;BME280;38637;49.984;20.426;2023-05-19T06:44:51;100265.44;;;11.76;100.00
52745;BME280;38637;49.984;20.426;2023-05-19T06:47:16;100264.19;;;11.84;100.00
52745;BME280;38637;49.984;20.426;2023-05-19T06:49:43;100267.09;;;11.77;100.00
52745;BME280;38637;49.984;20.426;2023-05-19T06:52:08;100264.50;;;11.70;100.00
52745;BME280;38637;49.984;20.426;2023-05-19T06:54:33;100264.13;;;11.79;100.00
52745;BME280;38637;49.984;20.426;2023-05-19T06:56:59;100265.50;;;11.81;100.00
52745;BME280;38637;49.984;20.426;2023-05-19T06:59:24;100265.78;;;11.80;100.00
52745;BME280;38637;49.984;20.426;2023-05-19T07:01:49;100268.25;;;11.81;100.00
52745;BME280;38637;49.984;20.426;2023-05-19T07:04:15;100267.41;;;11.81;100.00
52745;BME280;38637;49.984;20.426;2023-05-19T07:06:40;100261.13;;;11.80;100.00
52745;BME280;38637;49.984;20.426;2023-05-19T07:09:05;100260.53;;;11.78;99.48
52745;BME280;38637;49.984;20.426;2023-05-19T07:11:30;100262.28;;;11.67;98.49
52745;BME280;38637;49.984;20.426;2023-05-19T07:13:55;100261.38;;;11.79;100.00
52745;BME280;38637;49.984;20.426;2023-05-19T07:16:21;100256.44;;;11.92;100.00
52745;BME280;38637;49.984;20.426;2023-05-19T07:18:46;100256.59;;;12.03;100.00
52745;BME280;38637;49.984;20.426;2023-05-19T07:21:11;100260.00;;;12.10;100.00
52745;BME280;38637;49.984;20.426;2023-05-19T07:23:36;100256.00;;;12.17;100.00
52745;BME280;38637;49.984;20.426;2023-05-19T07:26:01;100260.28;;;12.30;100.00
52745;BME280;38637;49.984;20.426;2023-05-19T07:28:27;100254.47;;;12.44;99.93
52745;BME280;38637;49.984;20.426;2023-05-19T07:30:52;100263.97;;;12.58;99.63
52745;BME280;38637;49.984;20.426;2023-05-19T07:33:17;100253.06;;;12.80;97.84
52745;BME280;38637;49.984;20.426;2023-05-19T07:35:42;100259.22;;;13.14;96.82
52745;BME280;38637;49.984;20.426;2023-05-19T07:38:09;100266.63;;;13.36;94.34
52745;BME280;38637;49.984;20.426;2023-05-19T07:40:34;100255.22;;;13.49;94.13
52745;BME280;38637;49.984;20.426;2023-05-19T07:43:00;100261.91;;;13.58;93.37
52745;BME280;38637;49.984;20.426;2023-05-19T07:45:25;100260.84;;;13.64;92.88
52745;BME280;38637;49.984;20.426;2023-05-19T07:47:50;100251.50;;;13.60;91.75
52745;BME280;38637;49.984;20.426;2023-05-19T07:50:16;100255.88;;;13.56;92.21
52745;BME280;38637;49.984;20.426;2023-05-19T07:52:41;100249.75;;;13.49;92.43
52745;BME280;38637;49.984;20.426;2023-05-19T07:55:06;100253.66;;;13.31;90.84
52745;BME280;38637;49.984;20.426;2023-05-19T07:57:32;100249.88;;;13.10;88.71
52745;BME280;38637;49.984;20.426;2023-05-19T07:59:57;100260.31;;;12.91;90.31
52745;BME280;38637;49.984;20.426;2023-05-19T08:02:22;100256.75;;;12.91;91.67
52745;BME280;38637;49.984;20.426;2023-05-19T08:04:47;100251.53;;;12.89;92.44
52745;BME280;38637;49.984;20.426;2023-05-19T08:07:13;100263.81;;;12.86;92.54
52745;BME280;38637;49.984;20.426;2023-05-19T08:09:38;100264.84;;;12.80;91.86
52745;BME280;38637;49.984;20.426;2023-05-19T08:12:03;100219.50;;;12.51;92.68
52745;BME280;38637;49.984;20.426;2023-05-19T08:14:29;100263.16;;;12.79;92.93
52745;BME280;38637;49.984;20.426;2023-05-19T08:16:55;100252.19;;;12.79;93.08
52745;BME280;38637;49.984;20.426;2023-05-19T08:19:20;100256.84;;;12.79;93.22
52745;BME280;38637;49.984;20.426;2023-05-19T08:21:45;100257.94;;;12.78;92.76
52745;BME280;38637;49.984;20.426;2023-05-19T08:24:12;100249.47;;;12.79;93.14
52745;BME280;38637;49.984;20.426;2023-05-19T08:26:37;100254.94;;;12.79;93.07
52745;BME280;38637;49.984;20.426;2023-05-19T08:29:02;100254.13;;;12.79;92.99
52745;BME280;38637;49.984;20.426;2023-05-19T08:31:27;100254.69;;;12.81;92.96
52745;BME280;38637;49.984;20.426;2023-05-19T08:33:53;100256.34;;;12.82;93.05
52745;BME280;38637;49.984;20.426;2023-05-19T08:36:18;100266.25;;;12.83;93.19
52745;BME280;38637;49.984;20.426;2023-05-19T08:38:43;100260.44;;;12.79;93.20
52745;BME280;38637;49.984;20.426;2023-05-19T08:41:09;100270.00;;;12.77;93.31
52745;BME280;38637;49.984;20.426;2023-05-19T08:43:34;100255.72;;;12.75;93.45
52745;BME280;38637;49.984;20.426;2023-05-19T08:46:00;100268.84;;;12.73;93.44
52745;BME280;38637;49.984;20.426;2023-05-19T08:48:27;100264.13;;;12.68;93.46
52745;BME280;38637;49.984;20.426;2023-05-19T08:53:38;100259.84;;;12.55;93.64
52745;BME280;38637;49.984;20.426;2023-05-19T08:56:05;100255.81;;;12.41;93.20
52745;BME280;38637;49.984;20.426;2023-05-19T08:58:38;100256.13;;;12.45;94.30
52745;BME280;38637;49.984;20.426;2023-05-19T09:01:06;100261.19;;;12.53;94.30
52745;BME280;38637;49.984;20.426;2023-05-19T09:03:31;100264.06;;;12.63;94.08
52745;BME280;38637;49.984;20.426;2023-05-19T09:06:03;100254.22;;;12.67;93.79
52745;BME280;38637;49.984;20.426;2023-05-19T09:08:29;100261.44;;;12.73;93.24
52745;BME280;38637;49.984;20.426;2023-05-19T09:10:54;100264.34;;;12.83;93.15
52745;BME280;38637;49.984;20.426;2023-05-19T09:13:19;100263.63;;;12.93;92.95
52745;BME280;38637;49.984;20.426;2023-05-19T09:15:44;100262.34;;;13.01;92.45
52745;BME280;38637;49.984;20.426;2023-05-19T09:18:11;100258.53;;;13.02;91.90
52745;BME280;38637;49.984;20.426;2023-05-19T09:20:40;100258.84;;;13.05;91.87
52745;BME280;38637;49.984;20.426;2023-05-19T09:23:06;100253.59;;;13.04;91.72
52745;BME280;38637;49.984;20.426;2023-05-19T09:25:32;100260.09;;;12.98;90.48
52745;BME280;38637;49.984;20.426;2023-05-19T09:27:57;100262.41;;;12.84;90.57
52745;BME280;38637;49.984;20.426;2023-05-19T09:30:23;100255.31;;;12.66;90.60
52745;BME280;38637;49.984;20.426;2023-05-19T09:32:49;100258.69;;;12.73;91.56
52745;BME280;38637;49.984;20.426;2023-05-19T09:35:15;100256.31;;;12.77;92.10
52745;BME280;38637;49.984;20.426;2023-05-19T09:37:45;100264.31;;;12.61;91.74
52745;BME280;38637;49.984;20.426;2023-05-19T09:40:12;100262.91;;;12.59;92.86
52745;BME280;38637;49.984;20.426;2023-05-19T09:42:38;100273.19;;;12.69;93.23
52745;BME280;38637;49.984;20.426;2023-05-19T09:45:03;100267.69;;;12.69;92.85
52745;BME280;38637;49.984;20.426;2023-05-19T09:47:36;100265.16;;;12.84;93.05
52745;BME280;38637;49.984;20.426;2023-05-19T09:50:03;100267.31;;;12.82;91.17
52745;BME280;38637;49.984;20.426;2023-05-19T09:52:29;100268.53;;;12.69;91.41
52745;BME280;38637;49.984;20.426;2023-05-19T09:54:55;100274.00;;;12.69;92.13
52745;BME280;38637;49.984;20.426;2023-05-19T09:57:24;100268.53;;;12.69;92.32
52745;BME280;38637;49.984;20.426;2023-05-19T09:59:49;100258.69;;;12.73;92.30
52745;BME280;38637;49.984;20.426;2023-05-19T10:02:15;100262.94;;;12.81;92.42
52745;BME280;38637;49.984;20.426;2023-05-19T10:04:42;100259.56;;;12.74;90.50
52745;BME280;38637;49.984;20.426;2023-05-19T10:07:08;100259.34;;;12.80;91.03
52745;BME280;38637;49.984;20.426;2023-05-19T10:09:34;100267.00;;;12.78;90.50
52745;BME280;38637;49.984;20.426;2023-05-19T10:12:00;100262.66;;;12.82;90.91
52745;BME280;38637;49.984;20.426;2023-05-19T10:14:26;100263.31;;;12.90;91.16
52745;BME280;38637;49.984;20.426;2023-05-19T10:16:52;100267.63;;;12.85;90.33
52745;BME280;38637;49.984;20.426;2023-05-19T10:19:22;100263.00;;;12.86;90.86
52745;BME280;38637;49.984;20.426;2023-05-19T10:21:47;100265.47;;;12.87;90.93
52745;BME280;38637;49.984;20.426;2023-05-19T10:24:13;100272.47;;;12.78;90.54
52745;BME280;38637;49.984;20.426;2023-05-19T10:26:39;100259.28;;;12.75;91.18
52745;BME280;38637;49.984;20.426;2023-05-19T10:29:07;100276.44;;;12.87;91.63
52745;BME280;38637;49.984;20.426;2023-05-19T10:31:33;100271.47;;;12.84;91.43
52745;BME280;38637;49.984;20.426;2023-05-19T10:34:03;100267.31;;;12.82;90.98
52745;BME280;38637;49.984;20.426;2023-05-19T10:36:38;100267.28;;;12.77;90.72
52745;BME280;38637;49.984;20.426;2023-05-19T10:39:10;100268.66;;;12.79;90.68
52745;BME280;38637;49.984;20.426;2023-05-19T10:41:59;100267.69;;;12.91;91.71
52745;BME280;38637;49.984;20.426;2023-05-19T10:46:53;100264.00;;;13.02;91.57
52745;BME280;38637;49.984;20.426;2023-05-19T10:49:21;100258.72;;;12.95;91.28
52745;BME280;38637;49.984;20.426;2023-05-19T10:51:47;100262.91;;;13.03;91.05
52745;BME280;38637;49.984;20.426;2023-05-19T10:54:12;100260.34;;;13.18;90.94
52745;BME280;38637;49.984;20.426;2023-05-19T10:56:41;100263.69;;;13.20;89.14
52745;BME280;38637;49.984;20.426;2023-05-19T10:59:07;100262.47;;;13.33;90.21
52745;BME280;38637;49.984;20.426;2023-05-19T11:01:33;100264.25;;;13.44;88.56
52745;BME280;38637;49.984;20.426;2023-05-19T11:04:07;100263.28;;;13.33;87.33
52745;BME280;38637;49.984;20.426;2023-05-19T11:06:36;100258.78;;;13.22;88.77
52745;BME280;38637;49.984;20.426;2023-05-19T11:14:17;100254.03;;;13.40;89.45
52745;BME280;38637;49.984;20.426;2023-05-19T11:16:46;100260.81;;;13.32;87.80
52745;BME280;38637;49.984;20.426;2023-05-19T11:19:19;100256.84;;;13.23;87.90
52745;BME280;38637;49.984;20.426;2023-05-19T11:21:49;100251.44;;;13.28;88.23
52745;BME280;38637;49.984;20.426;2023-05-19T11:27:33;100255.44;;;13.20;89.07
52745;BME280;38637;49.984;20.426;2023-05-19T11:29:52;100261.84;;;13.26;88.50
52745;BME280;38637;49.984;20.426;2023-05-19T11:32:21;100255.03;;;13.28;88.12
52745;BME280;38637;49.984;20.426;2023-05-19T11:34:49;100256.84;;;13.23;88.02
52745;BME280;38637;49.984;20.426;2023-05-19T11:37:15;100265.09;;;13.23;88.19
52745;BME280;38637;49.984;20.426;2023-05-19T11:39:40;100260.53;;;13.28;87.64
52745;BME280;38637;49.984;20.426;2023-05-19T11:42:07;100267.75;;;13.40;87.80
52745;BME280;38637;49.984;20.426;2023-05-19T11:44:32;100266.88;;;13.61;86.87
52745;BME280;38637;49.984;20.426;2023-05-19T11:46:58;100271.97;;;13.74;87.58
52745;BME280;38637;49.984;20.426;2023-05-19T11:49:23;100264.53;;;13.75;87.36
52745;BME280;38637;49.984;20.426;2023-05-19T11:51:49;100264.41;;;13.92;87.47
52745;BME280;38637;49.984;20.426;2023-05-19T11:54:14;100266.16;;;14.03;87.66
52745;BME280;38637;49.984;20.426;2023-05-19T11:56:39;100265.81;;;13.94;87.07
52745;BME280;38637;49.984;20.426;2023-05-19T11:59:05;100265.38;;;13.75;87.70
52745;BME280;38637;49.984;20.426;2023-05-19T12:01:31;100265.28;;;13.65;88.27
52745;BME280;38637;49.984;20.426;2023-05-19T12:03:57;100266.56;;;13.57;88.70
52745;BME280;38637;49.984;20.426;2023-05-19T12:06:22;100265.28;;;13.38;89.57
52745;BME280;38637;49.984;20.426;2023-05-19T12:08:50;100256.03;;;13.22;90.88
52745;BME280;38637;49.984;20.426;2023-05-19T12:11:15;100259.09;;;13.04;91.07
52745;BME280;38637;49.984;20.426;2023-05-19T12:13:40;100260.50;;;12.84;92.65
52745;BME280;38637;49.984;20.426;2023-05-19T12:16:06;100267.06;;;12.83;92.76
52745;BME280;38637;49.984;20.426;2023-05-19T12:18:35;100267.31;;;12.82;92.67
52745;BME280;38637;49.984;20.426;2023-05-19T12:21:00;100261.44;;;12.73;93.29
52745;BME280;38637;49.984;20.426;2023-05-19T12:23:26;100277.13;;;12.78;93.97
52745;BME280;38637;49.984;20.426;2023-05-19T12:25:54;100266.69;;;12.75;93.95
52745;BME280;38637;49.984;20.426;2023-05-19T12:28:19;100263.13;;;12.74;93.91
52745;BME280;38637;49.984;20.426;2023-05-19T12:30:50;100258.59;;;12.85;94.28
52745;BME280;38637;49.984;20.426;2023-05-19T12:33:19;100258.28;;;12.81;93.11
52745;BME280;38637;49.984;20.426;2023-05-19T12:35:46;100255.22;;;12.78;93.06
52745;BME280;38637;49.984;20.426;2023-05-19T12:38:13;100257.75;;;12.84;93.57
52745;BME280;38637;49.984;20.426;2023-05-19T12:40:40;100257.56;;;12.91;94.10
52745;BME280;38637;49.984;20.426;2023-05-19T12:43:05;100258.91;;;12.88;93.53
52745;BME280;38637;49.984;20.426;2023-05-19T12:45:38;100259.78;;;12.94;93.88
52745;BME280;38637;49.984;20.426;2023-05-19T12:48:04;100250.84;;;13.04;93.57
52745;BME280;38637;49.984;20.426;2023-05-19T12:50:30;100259.34;;;13.02;92.55
52745;BME280;38637;49.984;20.426;2023-05-19T12:52:56;100260.25;;;13.08;92.52
52745;BME280;38637;49.984;20.426;2023-05-19T12:55:23;100248.56;;;13.18;92.29
52745;BME280;38637;49.984;20.426;2023-05-19T12:57:49;100250.38;;;13.29;92.41